createdAt,value
2023-10-24T00:00:30.385Z,100114.00
2023-10-24T00:02:57.342Z,100123.00
2023-10-24T00:05:24.284Z,100122.00
2023-10-24T00:07:51.882Z,100114.00
2023-10-24T00:10:19.118Z,100115.00
2023-10-24T00:12:46.048Z,100116.00
2023-10-24T00:15:13.166Z,100118.00
2023-10-24T00:17:40.282Z,100118.00
2023-10-24T00:20:08.336Z,100104.00
2023-10-24T00:22:35.351Z,100111.00
2023-10-24T00:25:02.365Z,100111.00
2023-10-24T00:27:29.311Z,100107.00
2023-10-24T00:29:56.224Z,100103.00
2023-10-24T00:32:38.561Z,100105.00
2023-10-24T00:35:05.844Z,100103.00
2023-10-24T00:37:33.589Z,100094.00
2023-10-24T00:40:00.517Z,100099.00
2023-10-24T00:42:27.440Z,100112.00
2023-10-24T00:44:54.314Z,100101.00
2023-10-24T00:47:21.415Z,100095.00
2023-10-24T00:49:48.404Z,100101.00
2023-10-24T00:52:15.579Z,100103.00
2023-10-24T00:54:42.616Z,100103.00
2023-10-24T00:57:12.500Z,100100.00
2023-10-24T00:59:41.098Z,100107.00
2023-10-24T01:02:10.583Z,100100.00
2023-10-24T01:04:38.427Z,100097.00
2023-10-24T01:07:05.422Z,100097.00
2023-10-24T01:09:32.675Z,100096.00
2023-10-24T01:12:00.246Z,100097.00
2023-10-24T01:14:27.340Z,100088.00
2023-10-24T01:16:54.860Z,100089.00
2023-10-24T01:19:22.278Z,100085.00
2023-10-24T01:21:49.312Z,100098.00
2023-10-24T01:24:18.134Z,100095.00
2023-10-24T01:26:45.851Z,100111.00
2023-10-24T01:29:13.067Z,100091.00
2023-10-24T01:31:40.037Z,100089.00
2023-10-24T01:34:07.016Z,100089.00
2023-10-24T01:36:33.913Z,100087.00
2023-10-24T01:39:00.931Z,100092.00
2023-10-24T01:41:28.023Z,100097.00
2023-10-24T01:43:56.856Z,100100.00
2023-10-24T01:46:23.944Z,100101.00
2023-10-24T01:48:50.958Z,100094.00
2023-10-24T01:51:18.300Z,100098.00
2023-10-24T01:53:45.246Z,100092.00
2023-10-24T01:56:13.857Z,100089.00
2023-10-24T01:58:41.381Z,100085.00
2023-10-24T02:01:08.825Z,100079.00
2023-10-24T02:03:35.887Z,100090.00
2023-10-24T02:06:03.377Z,100088.00
2023-10-24T02:08:30.327Z,100082.00
2023-10-24T02:10:57.197Z,100078.00
2023-10-24T02:13:24.115Z,100085.00
2023-10-24T02:15:54.730Z,100078.00
2023-10-24T02:18:21.781Z,100087.00
2023-10-24T02:20:48.703Z,100082.00
2023-10-24T02:23:15.614Z,100081.00
2023-10-24T02:25:42.945Z,100079.00
2023-10-24T02:28:09.900Z,100080.00
2023-10-24T02:30:40.485Z,100078.00
2023-10-24T02:33:07.512Z,100077.00
2023-10-24T02:35:34.617Z,100067.00
2023-10-24T02:38:01.613Z,100062.00
2023-10-24T02:40:28.622Z,100057.00
2023-10-24T02:42:55.557Z,100055.00
2023-10-24T02:45:22.582Z,100045.00
2023-10-24T02:47:49.625Z,100051.00
2023-10-24T02:50:16.808Z,100056.00
2023-10-24T02:52:43.818Z,100045.00
2023-10-24T02:55:11.024Z,100045.00
2023-10-24T02:57:38.204Z,100045.00
2023-10-24T03:00:06.893Z,100042.00
2023-10-24T03:02:33.954Z,100041.00
2023-10-24T03:05:00.961Z,100037.00
2023-10-24T03:07:27.968Z,100022.00
2023-10-24T03:09:54.864Z,99933.00
2023-10-24T03:12:21.773Z,100048.00
2023-10-24T03:14:48.670Z,100046.00
2023-10-24T03:17:15.635Z,100037.00
2023-10-24T03:19:42.633Z,100037.00
2023-10-24T03:22:09.613Z,100040.00
2023-10-24T03:24:36.505Z,100047.00
2023-10-24T03:27:03.859Z,100050.00
2023-10-24T03:29:35.607Z,100052.00
2023-10-24T03:32:03.767Z,100051.00
2023-10-24T03:34:31.050Z,100074.00
2023-10-24T03:36:58.077Z,100060.00
2023-10-24T03:39:25.566Z,100068.00
2023-10-24T03:41:52.577Z,100074.00
2023-10-24T03:44:19.492Z,100084.00
2023-10-24T03:46:46.529Z,100090.00
2023-10-24T03:49:13.968Z,100083.00
2023-10-24T03:51:43.544Z,100097.00
2023-10-24T03:54:11.037Z,100095.00
2023-10-24T03:56:37.979Z,100090.00
2023-10-24T03:59:06.170Z,100085.00
2023-10-24T04:01:33.091Z,100079.00
2023-10-24T04:04:00.071Z,100079.00
2023-10-24T04:06:27.026Z,100075.00
2023-10-24T04:08:54.024Z,100062.00
2023-10-24T04:11:20.927Z,100068.00
2023-10-24T04:13:48.241Z,100066.00
2023-10-24T04:16:15.404Z,100068.00
2023-10-24T04:18:42.504Z,100079.00
2023-10-24T04:21:09.451Z,100076.00
2023-10-24T04:23:37.019Z,100065.00
2023-10-24T04:26:06.988Z,100063.00
2023-10-24T04:28:34.146Z,100059.00
2023-10-24T04:31:01.503Z,100057.00
2023-10-24T04:33:28.754Z,100067.00
2023-10-24T04:35:55.824Z,100065.00
2023-10-24T04:38:22.895Z,100026.00
2023-10-24T04:40:55.415Z,100068.00
2023-10-24T04:43:22.339Z,100066.00
2023-10-24T04:45:53.539Z,100053.00
2023-10-24T04:48:20.526Z,100057.00
2023-10-24T04:50:47.418Z,100054.00
2023-10-24T04:53:14.368Z,100054.00
2023-10-24T04:55:41.956Z,100052.00
2023-10-24T04:58:08.983Z,100010.00
2023-10-24T05:00:35.865Z,100047.00
2023-10-24T05:03:03.712Z,100040.00
2023-10-24T05:05:30.700Z,100045.00
2023-10-24T05:07:57.703Z,100040.00
2023-10-24T05:10:24.820Z,100033.00
2023-10-24T05:12:51.712Z,100048.00
2023-10-24T05:15:18.656Z,100061.00
2023-10-24T05:17:45.712Z,100076.00
2023-10-24T05:20:18.060Z,100046.00
2023-10-24T05:22:45.124Z,100064.00
2023-10-24T05:25:12.085Z,100063.00
2023-10-24T05:27:39.705Z,100057.00
2023-10-24T05:30:07.571Z,100059.00
2023-10-24T05:32:35.604Z,100056.00
2023-10-24T05:35:02.728Z,100056.00
2023-10-24T05:37:29.695Z,100058.00
2023-10-24T05:39:56.673Z,100067.00
2023-10-24T05:42:23.589Z,100068.00
2023-10-24T05:44:50.466Z,100074.00
2023-10-24T05:47:17.341Z,100082.00
2023-10-24T05:49:44.590Z,100092.00
2023-10-24T05:52:11.605Z,100078.00
2023-10-24T05:54:38.792Z,100078.00
2023-10-24T05:57:05.899Z,100076.00
2023-10-24T05:59:35.124Z,100070.00
2023-10-24T06:02:02.149Z,100084.00
2023-10-24T06:04:29.106Z,100098.00
2023-10-24T06:06:56.344Z,100082.00
2023-10-24T06:09:23.236Z,100077.00
2023-10-24T06:11:50.178Z,100078.00
2023-10-24T06:14:17.078Z,100070.00
2023-10-24T06:16:44.010Z,100070.00
2023-10-24T06:19:10.955Z,100063.00
2023-10-24T06:21:37.944Z,100079.00
2023-10-24T06:24:05.403Z,100080.00
2023-10-24T06:26:32.459Z,100087.00
2023-10-24T06:28:59.510Z,100080.00
2023-10-24T06:31:27.736Z,100069.00
2023-10-24T06:33:54.801Z,100061.00
2023-10-24T06:36:22.392Z,100053.00
2023-10-24T06:38:49.384Z,100058.00
2023-10-24T06:41:17.541Z,100060.00
2023-10-24T06:43:44.514Z,100047.00
2023-10-24T06:46:12.097Z,100040.00
2023-10-24T06:48:39.096Z,100039.00
2023-10-24T06:51:06.233Z,100041.00
2023-10-24T06:53:33.147Z,100057.00
2023-10-24T06:56:01.544Z,100058.00
2023-10-24T06:58:28.971Z,100067.00
2023-10-24T07:00:56.466Z,100065.00
2023-10-24T07:03:23.729Z,100069.00
2023-10-24T07:05:53.363Z,100078.00
2023-10-24T07:08:22.227Z,100085.00
2023-10-24T07:10:49.998Z,100087.00
2023-10-24T07:13:17.159Z,100074.00
2023-10-24T07:15:44.088Z,100077.00
2023-10-24T07:18:12.205Z,100086.00
2023-10-24T07:20:39.680Z,100075.00
2023-10-24T07:23:07.633Z,100061.00
2023-10-24T07:25:34.940Z,100068.00
2023-10-24T07:28:03.147Z,100073.00
2023-10-24T07:30:31.153Z,100050.00
2023-10-24T07:32:58.586Z,100076.00
2023-10-24T07:35:25.652Z,100046.00
2023-10-24T07:37:52.579Z,100051.00
2023-10-24T07:40:19.664Z,100062.00
2023-10-24T07:42:46.782Z,100068.00
2023-10-24T07:45:14.873Z,100051.00
2023-10-24T07:47:42.006Z,100044.00
2023-10-24T07:50:10.618Z,100037.00
2023-10-24T07:52:37.962Z,100032.00
2023-10-24T07:55:05.599Z,100017.00
2023-10-24T07:57:32.563Z,100032.00
2023-10-24T07:59:59.522Z,100031.00
2023-10-24T08:02:26.804Z,100039.00
2023-10-24T08:04:53.788Z,100033.00
2023-10-24T08:07:20.804Z,100039.00
2023-10-24T08:09:47.916Z,100037.00
2023-10-24T08:12:15.047Z,100039.00
2023-10-24T08:14:42.219Z,100038.00
2023-10-24T08:17:09.408Z,100038.00
2023-10-24T08:19:36.479Z,100038.00
2023-10-24T08:22:03.779Z,100035.00
2023-10-24T08:24:30.772Z,100037.00
2023-10-24T08:27:10.640Z,100049.00
2023-10-24T08:29:38.756Z,100046.00
2023-10-24T08:32:13.085Z,100059.00
2023-10-24T08:34:42.363Z,100055.00
2023-10-24T08:37:10.118Z,100041.00
2023-10-24T08:39:37.165Z,100044.00
2023-10-24T08:42:04.884Z,100037.00
2023-10-24T08:44:34.654Z,100041.00
2023-10-24T08:47:04.129Z,100059.00
2023-10-24T08:49:33.166Z,100053.00
2023-10-24T08:52:02.775Z,100047.00
2023-10-24T08:54:35.472Z,100039.00
2023-10-24T08:57:04.146Z,100035.00
2023-10-24T08:59:36.473Z,100034.00
2023-10-24T09:02:10.202Z,100022.00
2023-10-24T09:04:37.358Z,100028.00
2023-10-24T09:07:04.807Z,100029.00
2023-10-24T09:09:31.718Z,100025.00
2023-10-24T09:12:05.228Z,100023.00
2023-10-24T09:14:44.870Z,100018.00
2023-10-24T09:17:17.623Z,100023.00
2023-10-24T09:19:45.303Z,100006.00
2023-10-24T09:22:18.092Z,100021.00
2023-10-24T09:24:50.622Z,100029.00
2023-10-24T09:27:22.648Z,100025.00
2023-10-24T09:29:52.983Z,100015.00
2023-10-24T09:32:21.754Z,99990.00
2023-10-24T09:34:49.965Z,99998.00
2023-10-24T09:37:17.782Z,100010.00
2023-10-24T09:40:00.659Z,99993.00
2023-10-24T09:42:36.120Z,99986.00
2023-10-24T09:45:07.419Z,99992.00
2023-10-24T09:47:37.266Z,99987.00
2023-10-24T09:50:09.139Z,99992.00
2023-10-24T09:52:37.548Z,99979.00
2023-10-24T09:55:05.478Z,99964.00
2023-10-24T09:57:32.500Z,99979.00
2023-10-24T10:00:00.629Z,99980.00
2023-10-24T10:02:28.927Z,99975.00
2023-10-24T10:04:56.473Z,99967.00
2023-10-24T10:07:27.161Z,99968.00
2023-10-24T10:09:55.856Z,99971.00
2023-10-24T10:12:25.014Z,99967.00
2023-10-24T10:15:27.019Z,99957.00
2023-10-24T10:18:05.083Z,99968.00
2023-10-24T10:20:46.425Z,99964.00
2023-10-24T10:23:51.571Z,99964.00
2023-10-24T10:27:04.508Z,99964.00
2023-10-24T10:29:34.321Z,99959.00
2023-10-24T10:32:44.232Z,99954.00
2023-10-24T10:35:03.458Z,99947.00
2023-10-24T10:37:36.973Z,99934.00
2023-10-24T10:40:25.704Z,99928.00
2023-10-24T10:42:53.120Z,99929.00
2023-10-24T10:45:28.682Z,99934.00
2023-10-24T10:48:05.910Z,99934.00
2023-10-24T10:50:35.591Z,99922.00
2023-10-24T10:53:45.422Z,99924.00
2023-10-24T10:56:24.328Z,99928.00
2023-10-24T10:59:09.424Z,99934.00
2023-10-24T11:02:05.564Z,99936.00
2023-10-24T11:04:32.710Z,99936.00
2023-10-24T11:07:04.633Z,99923.00
2023-10-24T11:09:37.051Z,99922.00
2023-10-24T11:12:22.177Z,99916.00
2023-10-24T11:15:17.877Z,99916.00
2023-10-24T11:17:47.255Z,99911.00
2023-10-24T11:20:22.463Z,99915.00
2023-10-24T11:22:51.845Z,99908.00
2023-10-24T11:25:19.116Z,99910.00
2023-10-24T11:27:49.454Z,99904.00
2023-10-24T11:30:16.931Z,99908.00
2023-10-24T11:32:44.891Z,99904.00
2023-10-24T11:35:12.389Z,99904.00
2023-10-24T11:37:39.409Z,99910.00
2023-10-24T11:40:08.176Z,99897.00
2023-10-24T11:42:35.148Z,99893.00
2023-10-24T11:45:02.379Z,99890.00
2023-10-24T11:47:29.394Z,99855.00
2023-10-24T11:49:56.943Z,99882.00
2023-10-24T11:52:24.973Z,99854.00
2023-10-24T11:54:53.786Z,99872.00
2023-10-24T11:57:23.406Z,99879.00
2023-10-24T11:59:52.090Z,99885.00
2023-10-24T12:02:19.100Z,99882.00
2023-10-24T12:04:52.753Z,99871.00
2023-10-24T12:07:20.677Z,99912.00
2023-10-24T12:09:47.596Z,99863.00
2023-10-24T12:12:14.959Z,99853.00
2023-10-24T12:14:45.304Z,99847.00
2023-10-24T12:17:12.647Z,99853.00
2023-10-24T12:19:41.121Z,99854.00
2023-10-24T12:22:08.566Z,99859.00
2023-10-24T12:24:35.519Z,99868.00
2023-10-24T12:27:02.514Z,99874.00
2023-10-24T12:29:29.530Z,99859.00
2023-10-24T12:31:56.556Z,99851.00
2023-10-24T12:34:24.326Z,99854.00
2023-10-24T12:36:53.254Z,99842.00
2023-10-24T12:39:22.493Z,99845.00
2023-10-24T12:41:49.667Z,99839.00
2023-10-24T12:44:17.190Z,99820.00
2023-10-24T12:46:44.159Z,99821.00
2023-10-24T12:49:11.389Z,99827.00
2023-10-24T12:51:38.341Z,99823.00
2023-10-24T12:54:05.363Z,99826.00
2023-10-24T12:56:32.679Z,99839.00
2023-10-24T12:58:59.687Z,99834.00
2023-10-24T13:01:28.759Z,99839.00
2023-10-24T13:03:56.046Z,99838.00
2023-10-24T13:06:23.514Z,99806.00
2023-10-24T13:08:50.433Z,99831.00
2023-10-24T13:11:19.302Z,99837.00
2023-10-24T13:13:46.687Z,99836.00
2023-10-24T13:16:14.111Z,99831.00
2023-10-24T13:18:41.043Z,99831.00
2023-10-24T13:21:08.005Z,99832.00
2023-10-24T13:23:34.945Z,99837.00
2023-10-24T13:26:02.002Z,99833.00
2023-10-24T13:28:29.027Z,99826.00
2023-10-24T13:31:14.354Z,99826.00
2023-10-24T13:34:13.904Z,99822.00
2023-10-24T13:36:32.536Z,99820.00
2023-10-24T13:38:59.806Z,99809.00
2023-10-24T13:41:28.909Z,99812.00
2023-10-24T13:43:59.978Z,99720.00
2023-10-24T13:46:29.299Z,99810.00
2023-10-24T13:48:58.550Z,99803.00
2023-10-24T13:51:26.248Z,99802.00
2023-10-24T13:53:54.088Z,99795.00
2023-10-24T13:56:21.292Z,99797.00
2023-10-24T13:58:48.283Z,99793.00
2023-10-24T14:01:15.232Z,99786.00
2023-10-24T14:03:42.267Z,99742.00
2023-10-24T14:06:09.949Z,99778.00
2023-10-24T14:08:37.110Z,99772.00
2023-10-24T14:11:05.289Z,99768.00
2023-10-24T14:13:32.336Z,99776.00
2023-10-24T14:15:59.505Z,99774.00
2023-10-24T14:18:26.716Z,99775.00
2023-10-24T14:20:53.637Z,99763.00
2023-10-24T14:23:23.316Z,99763.00
2023-10-24T14:25:50.263Z,99761.00
2023-10-24T14:28:17.544Z,99750.00
2023-10-24T14:30:44.491Z,99750.00
2023-10-24T14:33:11.447Z,99749.00
2023-10-24T14:35:38.518Z,99759.00
2023-10-24T14:38:06.341Z,99763.00
2023-10-24T14:40:33.913Z,99731.00
2023-10-24T14:43:02.027Z,99746.00
2023-10-24T14:45:30.098Z,99747.00
2023-10-24T14:47:57.114Z,99746.00
2023-10-24T14:50:26.244Z,99750.00
2023-10-24T14:52:53.333Z,99728.00
2023-10-24T14:55:20.441Z,99729.00
2023-10-24T14:57:48.681Z,99723.00
2023-10-24T15:00:16.352Z,99724.00
2023-10-24T15:02:43.785Z,99729.00
2023-10-24T15:05:11.197Z,99722.00
2023-10-24T15:07:38.226Z,99716.00
2023-10-24T15:10:05.849Z,99728.00
2023-10-24T15:12:32.764Z,99724.00
2023-10-24T15:14:59.862Z,99726.00
2023-10-24T15:17:27.053Z,99707.00
2023-10-24T15:19:55.574Z,99715.00
2023-10-24T15:22:22.551Z,99703.00
2023-10-24T15:24:49.645Z,99706.00
2023-10-24T15:27:18.506Z,99699.00
2023-10-24T15:29:45.535Z,99689.00
2023-10-24T15:32:16.319Z,99691.00
2023-10-24T15:34:43.866Z,99691.00
2023-10-24T15:37:11.119Z,99690.00
2023-10-24T15:39:38.447Z,99679.00
2023-10-24T15:42:05.913Z,99681.00
2023-10-24T15:44:32.899Z,99681.00
2023-10-24T15:47:00.023Z,99679.00
2023-10-24T15:49:28.371Z,99679.00
2023-10-24T15:51:56.362Z,99672.00
2023-10-24T15:54:23.252Z,99660.00
2023-10-24T15:56:50.154Z,99663.00
2023-10-24T15:59:17.284Z,99671.00
2023-10-24T16:01:44.940Z,99680.00
2023-10-24T16:04:12.127Z,99680.00
2023-10-24T16:06:39.093Z,99678.00
2023-10-24T16:09:06.148Z,99681.00
2023-10-24T16:11:33.121Z,99678.00
2023-10-24T16:14:01.319Z,99677.00
2023-10-24T16:16:31.838Z,99671.00
2023-10-24T16:19:01.816Z,99671.00
2023-10-24T16:21:29.209Z,99663.00
2023-10-24T16:23:56.151Z,99663.00
2023-10-24T16:26:23.077Z,99658.00
2023-10-24T16:28:50.220Z,99649.00
2023-10-24T16:31:18.059Z,99654.00
2023-10-24T16:33:45.599Z,99651.00
2023-10-24T16:36:12.567Z,99666.00
2023-10-24T16:38:39.598Z,99663.00
2023-10-24T16:41:06.587Z,99655.00
2023-10-24T16:43:33.499Z,99648.00
2023-10-24T16:46:00.689Z,99647.00
2023-10-24T16:48:29.138Z,99624.00
2023-10-24T16:50:57.227Z,99641.00
2023-10-24T16:53:25.228Z,99640.00
2023-10-24T16:55:57.248Z,99632.00
2023-10-24T16:58:25.807Z,99623.00
2023-10-24T17:00:56.148Z,99626.00
2023-10-24T17:03:23.691Z,99607.00
2023-10-24T17:05:50.840Z,99627.00
2023-10-24T17:08:17.870Z,99632.00
2023-10-24T17:10:45.161Z,99631.00
2023-10-24T17:13:12.159Z,99628.00
2023-10-24T17:15:39.844Z,99622.00
2023-10-24T17:18:06.968Z,99617.00
2023-10-24T17:20:35.564Z,99614.00
2023-10-24T17:23:03.214Z,99599.00
2023-10-24T17:25:30.902Z,99598.00
2023-10-24T17:27:57.957Z,99595.00
2023-10-24T17:30:28.500Z,99597.00
2023-10-24T17:32:57.674Z,99598.00
2023-10-24T17:35:25.045Z,99593.00
2023-10-24T17:37:54.983Z,99598.00
2023-10-24T17:40:22.148Z,99590.00
2023-10-24T17:42:53.828Z,99592.00
2023-10-24T17:45:20.810Z,99585.00
2023-10-24T17:47:48.449Z,99578.00
2023-10-24T17:50:16.376Z,99582.00
2023-10-24T17:52:43.535Z,99566.00
2023-10-24T17:55:10.534Z,99571.00
2023-10-24T17:57:37.471Z,99563.00
2023-10-24T18:00:05.194Z,99548.00
2023-10-24T18:02:32.267Z,99552.00
2023-10-24T18:05:02.192Z,99537.00
2023-10-24T18:07:32.623Z,99530.00
2023-10-24T18:10:03.823Z,99528.00
2023-10-24T18:12:31.134Z,99530.00
2023-10-24T18:14:58.071Z,99535.00
2023-10-24T18:17:25.043Z,99532.00
2023-10-24T18:19:52.022Z,99522.00
2023-10-24T18:22:18.952Z,99525.00
2023-10-24T18:24:45.875Z,99532.00
2023-10-24T18:27:15.878Z,99523.00
2023-10-24T18:29:42.840Z,99528.00
2023-10-24T18:32:09.914Z,99526.00
2023-10-24T18:34:36.830Z,99524.00
2023-10-24T18:37:03.872Z,99524.00
2023-10-24T18:39:30.868Z,99527.00
2023-10-24T18:41:58.267Z,99521.00
2023-10-24T18:44:25.241Z,99522.00
2023-10-24T18:46:52.192Z,99518.00
2023-10-24T18:49:20.180Z,99518.00
2023-10-24T18:51:47.218Z,99521.00
2023-10-24T18:54:17.074Z,99519.00
2023-10-24T18:56:45.088Z,99496.00
2023-10-24T18:59:12.880Z,99518.00
2023-10-24T19:01:39.855Z,99506.00
2023-10-24T19:04:08.310Z,99514.00
2023-10-24T19:06:36.298Z,99511.00
2023-10-24T19:09:04.612Z,99514.00
2023-10-24T19:11:34.528Z,99502.00
2023-10-24T19:14:02.498Z,99501.00
2023-10-24T19:16:30.084Z,99499.00
2023-10-24T19:18:57.838Z,99499.00
2023-10-24T19:21:25.248Z,99489.00
2023-10-24T19:23:52.588Z,99487.00
2023-10-24T19:26:19.970Z,99490.00
2023-10-24T19:28:47.105Z,99489.00
2023-10-24T19:31:14.887Z,99487.00
2023-10-24T19:33:44.108Z,99483.00
2023-10-24T19:36:15.682Z,99479.00
2023-10-24T19:38:44.443Z,99477.00
2023-10-24T19:41:12.296Z,99470.00
2023-10-24T19:43:39.714Z,99467.00
2023-10-24T19:46:10.125Z,99463.00
2023-10-24T19:48:38.721Z,99463.00
2023-10-24T19:51:06.998Z,99466.00
2023-10-24T19:53:35.423Z,99439.00
2023-10-24T19:56:08.803Z,99456.00
2023-10-24T19:58:40.336Z,99441.00
2023-10-24T20:01:08.415Z,99446.00
2023-10-24T20:03:36.582Z,99445.00
2023-10-24T20:06:05.459Z,99438.00
2023-10-24T20:08:44.359Z,99437.00
2023-10-24T20:12:32.855Z,99435.00
2023-10-24T20:14:02.466Z,99435.00
2023-10-24T20:16:34.255Z,99424.00
2023-10-24T20:19:01.592Z,99417.00
2023-10-24T20:21:29.033Z,99410.00
2023-10-24T20:23:56.620Z,99405.00
2023-10-24T20:26:27.034Z,99415.00
2023-10-24T20:28:54.548Z,99420.00
2023-10-24T20:31:21.569Z,99415.00
2023-10-24T20:33:49.477Z,99397.00
2023-10-24T20:36:16.475Z,99392.00
2023-10-24T20:38:43.374Z,99395.00
2023-10-24T20:41:12.184Z,99390.00
2023-10-24T20:43:39.190Z,99383.00
2023-10-24T20:46:06.192Z,99384.00
2023-10-24T20:48:33.479Z,99354.00
2023-10-24T20:51:00.441Z,99379.00
2023-10-24T20:53:28.735Z,99382.00
2023-10-24T20:55:59.394Z,99371.00
2023-10-24T20:58:26.618Z,99373.00
2023-10-24T21:00:53.664Z,99375.00
2023-10-24T21:03:21.007Z,99368.00
2023-10-24T21:05:49.163Z,99369.00
2023-10-24T21:08:16.114Z,99361.00
2023-10-24T21:10:45.475Z,99364.00
2023-10-24T21:13:13.026Z,99352.00
2023-10-24T21:15:41.213Z,99341.00
2023-10-24T21:18:08.261Z,99346.00
2023-10-24T21:20:38.408Z,99343.00
2023-10-24T21:23:05.447Z,99334.00
2023-10-24T21:25:33.259Z,99337.00
2023-10-24T21:28:00.308Z,99328.00
2023-10-24T21:30:27.241Z,99322.00
2023-10-24T21:32:54.223Z,99325.00
2023-10-24T21:35:21.162Z,99322.00
2023-10-24T21:37:48.155Z,99321.00
2023-10-24T21:40:15.329Z,99312.00
2023-10-24T21:42:42.719Z,99313.00
2023-10-24T21:45:10.188Z,99305.00
2023-10-24T21:47:37.092Z,99299.00
2023-10-24T21:50:04.408Z,99309.00
2023-10-24T21:52:31.326Z,99300.00
2023-10-24T21:54:58.220Z,99306.00
2023-10-24T21:57:25.148Z,99300.00
2023-10-24T21:59:53.478Z,99290.00
2023-10-24T22:02:20.559Z,99290.00
2023-10-24T22:04:47.476Z,99284.00
2023-10-24T22:07:14.372Z,99289.00
2023-10-24T22:09:41.705Z,99272.00
2023-10-24T22:12:09.363Z,99285.00
2023-10-24T22:14:36.809Z,99276.00
2023-10-24T22:17:04.504Z,99275.00
2023-10-24T22:19:31.545Z,99272.00
2023-10-24T22:21:58.485Z,99271.00
2023-10-24T22:24:25.422Z,99254.00
2023-10-24T22:26:52.323Z,99263.00
2023-10-24T22:29:20.017Z,99250.00
2023-10-24T22:31:46.964Z,99254.00
2023-10-24T22:34:13.954Z,99255.00
2023-10-24T22:36:40.885Z,99251.00
2023-10-24T22:39:07.840Z,99242.00
2023-10-24T22:41:34.759Z,99241.00
2023-10-24T22:44:01.637Z,99248.00
2023-10-24T22:46:28.601Z,99240.00
2023-10-24T22:48:55.653Z,99237.00
2023-10-24T22:51:22.627Z,99231.00
2023-10-24T22:53:49.522Z,99231.00
2023-10-24T22:56:16.537Z,99215.00
2023-10-24T22:58:45.221Z,99221.00
2023-10-24T23:01:14.013Z,99211.00
2023-10-24T23:03:41.380Z,99217.00
2023-10-24T23:06:08.511Z,99206.00
2023-10-24T23:08:35.398Z,99210.00
2023-10-24T23:11:09.514Z,99200.00
2023-10-24T23:13:36.445Z,99209.00
2023-10-24T23:16:08.440Z,99204.00
2023-10-24T23:18:41.644Z,99199.00
2023-10-24T23:21:08.658Z,99194.00
2023-10-24T23:23:35.596Z,99186.00
2023-10-24T23:26:02.527Z,99191.00
2023-10-24T23:28:29.580Z,99199.00
2023-10-24T23:30:58.799Z,99180.00
2023-10-24T23:33:25.915Z,99179.00
2023-10-24T23:35:53.655Z,99186.00
2023-10-24T23:38:20.573Z,99179.00
2023-10-24T23:40:48.219Z,99183.00
2023-10-24T23:43:15.920Z,99176.00
2023-10-24T23:45:42.873Z,99184.00
2023-10-24T23:48:09.831Z,99182.00
2023-10-24T23:50:36.740Z,99179.00
2023-10-24T23:53:03.625Z,99177.00
2023-10-24T23:55:37.059Z,99178.00
2023-10-24T23:58:04.986Z,99177.00
